메인 페이지
METAR-TAF:

METAR-TAF

공항 :

후쿠오카 공항

후쿠오카, 일본

위도: 33-35N, 경도: 130-27E, 고도: 9m

현재 날씨관측

예보는 28분 전, 05:30시(UTC)에 발표되었습니다.
북서9kt서북서풍과 풍을 오가는
온도 21°C
습도 46%
기압 1011 hPa
시정 10km 이상
고도 2500ft 상공 구름 조금
구름 많음

METAR: RJFF 160530Z 32009KT 290V360 9999 FEW025 BKN/// 21/09 Q1011 NOSIG

시각: 14:58 (05:58 UTC)

예보

예보는 53분 전, 05:05시(UTC)에 발표되었습니다.
예보 대상 시간: 16일 06시부터 17일 12시까지 (UTC)
북서11kt
시정 10km 이상
고도 3000ft 상공 구름 조금
전환 중
16일 10시부터 16일 12시까지 (UTC)
남동4kt
전환 중
17일 00시부터 17일 03시까지 (UTC)
북서11kt

TAF: RJFF 160505Z 1606/1712 32011KT 9999 FEW030 BECMG 1610/1612 14004KT BECMG 1700/1703 31011KT

4,000개 이상의 공항 관측 자료 및 예보 (METAR 및 TAF 보고).

지도상에서 검색 가능한 기상관측소가 노란 점과 빨간 점으로 표시되어 있습니다.

기상관측소 명을 보려면 표시 위로 마우스를 이동하세요.

날씨 관측과 예보를 보려면 클릭하세요.

지도 변경 : 확대하려면 엑스 표시가 있는 녹색 버튼, 축소하려면 빼기 표시가 있는 녹색 버튼, 다음 페이지의 지도를 보려면 녹색 화살표를 클릭하세요.


METAR-TAF: